Time;durP1;ratioP1;P1;durP2;ratioP2;P2;SDS_P1;SDS_P2;PMS_P1;PMS_P2;Temp;Humidity;BMP_temperature;BMP_pressure;BME280_temperature;BME280_humidity;BME280_pressure;Samples;Min_cycle;Max_cycle;Signal;HPM_P1;HPM_P2
2022/11/02 00:01:44;;;;;;;11.60;2.00;;;;;;;-145.18;100.00;46668.22;5092793;28;20137;-73
2022/11/02 00:04:10;;;;;;;11.57;1.83;;;;;;;-145.18;100.00;46677.97;5092520;28;20113;-73
2022/11/02 00:06:35;;;;;;;13.00;2.40;;;;;;;-145.18;100.00;46672.13;5092963;28;20056;-73
2022/11/02 00:09:01;;;;;;;12.57;1.83;;;;;;;-145.18;100.00;46683.84;5092814;28;20170;-74
2022/11/02 00:11:26;;;;;;;19.57;2.50;;;;;;;-145.18;100.00;46683.84;5092767;28;20149;-73
2022/11/02 00:13:52;;;;;;;14.67;1.77;;;;;;;-145.18;100.00;46677.97;5073208;28;20040;-73
2022/11/02 00:16:19;;;;;;;13.20;1.57;;;;;;;-145.18;100.00;46681.88;5092446;28;20123;-73
2022/11/02 00:18:48;;;;;;;8.33;1.90;;;;;;;-145.18;100.00;46687.75;5092762;28;20032;-73
2022/11/02 00:21:17;;;;;;;13.73;2.00;;;;;;;-145.18;100.00;46685.78;5092740;28;20492;-73
2022/11/02 00:23:44;;;;;;;11.27;1.80;;;;;;;-145.18;100.00;46687.75;5092633;28;20028;-73
2022/11/02 00:26:10;;;;;;;18.20;2.73;;;;;;;-145.18;100.00;46681.88;5092108;28;20142;-73
2022/11/02 00:28:36;;;;;;;9.07;1.80;;;;;;;-145.18;100.00;46691.66;5092758;28;20161;-73
2022/11/02 00:31:01;;;;;;;11.53;2.87;;;;;;;-145.18;100.00;46679.94;5092355;28;20257;-74
2022/11/02 00:33:26;;;;;;;13.80;2.90;;;;;;;-145.18;100.00;46685.78;5092598;28;20028;-73
2022/11/02 00:35:53;;;;;;;12.67;1.67;;;;;;;-145.18;100.00;46676.03;5092387;28;20502;-74
2022/11/02 00:38:19;;;;;;;17.30;2.53;;;;;;;-145.18;100.00;46683.84;5074111;28;20028;-73
2022/11/02 00:40:44;;;;;;;6.97;1.47;;;;;;;-145.18;100.00;46687.75;5092345;28;20036;-73
2022/11/02 00:43:09;;;;;;;10.73;2.23;;;;;;;-145.18;100.00;46685.78;5092025;28;20077;-73
2022/11/02 00:45:35;;;;;;;11.83;2.70;;;;;;;-145.18;100.00;46679.94;5092562;28;20036;-74
2022/11/02 00:48:00;;;;;;;15.53;2.87;;;;;;;-145.18;100.00;46681.88;5091643;28;20093;-74
2022/11/02 00:50:25;;;;;;;4.37;0.50;;;;;;;-145.18;100.00;46687.75;5074005;28;20040;-73
2022/11/02 00:52:51;;;;;;;4.13;0.63;;;;;;;-145.18;100.00;46697.50;5091728;28;20063;-72
2022/11/02 00:55:16;;;;;;;3.97;0.60;;;;;;;-145.18;100.00;46695.56;5092139;28;20483;-73
2022/11/02 00:57:43;;;;;;;11.27;0.83;;;;;;;-145.18;100.00;46693.59;5091818;28;20601;-72
2022/11/02 01:00:10;;;;;;;6.10;0.73;;;;;;;-145.18;100.00;46691.66;5091922;28;20165;-72
2022/11/02 01:02:36;;;;;;;5.83;0.90;;;;;;;-145.18;100.00;46683.84;5091191;28;20042;-72
2022/11/02 01:05:02;;;;;;;7.50;1.10;;;;;;;-145.18;100.00;46679.94;5091778;28;20283;-72
2022/11/02 01:07:28;;;;;;;3.63;0.57;;;;;;;-145.18;100.00;46681.88;5091554;28;20292;-72
2022/11/02 01:09:53;;;;;;;5.43;0.70;;;;;;;-145.18;100.00;46679.94;5091604;28;20793;-72
2022/11/02 01:12:19;;;;;;;9.53;1.20;;;;;;;-145.18;100.00;46677.97;5091441;28;20032;-72
2022/11/02 01:14:46;;;;;;;10.37;1.83;;;;;;;-145.18;100.00;46681.88;5091787;28;20035;-72
2022/11/02 01:17:11;;;;;;;9.77;1.73;;;;;;;-145.18;100.00;46674.06;5091293;28;20059;-72
2022/11/02 01:19:37;;;;;;;7.07;1.10;;;;;;;-145.18;100.00;46674.06;5091765;28;20351;-72
2022/11/02 01:22:02;;;;;;;7.77;1.20;;;;;;;-145.18;100.00;46672.13;5091270;28;20102;-72
2022/11/02 01:24:29;;;;;;;11.80;1.30;;;;;;;-145.18;100.00;46672.13;5091588;28;20028;-72
2022/11/02 01:26:54;;;;;;;10.60;1.40;;;;;;;-145.18;100.00;46672.13;5091146;28;20036;-72
2022/11/02 01:29:20;;;;;;;10.23;1.87;;;;;;;-145.18;100.00;46668.22;5090933;28;20821;-72
2022/11/02 01:31:45;;;;;;;8.13;1.10;;;;;;;-145.18;100.00;46672.13;5090994;28;20028;-72
2022/11/02 01:34:11;;;;;;;8.43;1.07;;;;;;;-145.18;100.00;46677.97;5091578;28;20032;-72
2022/11/02 01:36:36;;;;;;;11.87;1.10;;;;;;;-145.18;100.00;46674.06;5091139;28;20032;-72
2022/11/02 01:39:02;;;;;;;7.57;1.37;;;;;;;-145.18;100.00;46670.16;5090964;28;20108;-72
2022/11/02 01:41:27;;;;;;;7.33;1.13;;;;;;;-145.18;100.00;46674.06;5091233;28;20471;-72
2022/11/02 01:43:55;;;;;;;14.70;2.83;;;;;;;-145.18;100.00;46670.16;5072885;28;20127;-72
2022/11/02 01:46:35;;;;;;;6.10;2.33;;;;;;;-145.18;100.00;46670.16;5090899;28;20086;-73
2022/11/02 01:49:10;;;;;;;9.43;1.70;;;;;;;-145.18;100.00;46672.13;5091071;28;20325;-73
2022/11/02 01:51:38;;;;;;;8.27;1.53;;;;;;;-145.18;100.00;46664.31;5091078;28;20434;-74
2022/11/02 01:54:09;;;;;;;7.67;1.63;;;;;;;-145.18;100.00;46666.25;5090535;28;20280;-74
2022/11/02 01:56:36;;;;;;;9.90;2.40;;;;;;;-145.18;100.00;46670.16;5090843;28;20057;-73
2022/11/02 01:59:05;;;;;;;14.10;1.83;;;;;;;-145.18;100.00;46668.22;5090673;28;20333;-73
2022/11/02 02:01:31;;;;;;;10.53;2.40;;;;;;;-145.18;100.00;46670.16;5090684;28;20021;-73
2022/11/02 02:03:58;;;;;;;10.37;1.50;;;;;;;-145.18;100.00;46664.31;5090573;28;20139;-73
2022/11/02 02:06:27;;;;;;;11.20;1.50;;;;;;;-145.18;100.00;46668.22;5090457;28;20349;-73
2022/11/02 02:08:54;;;;;;;7.23;1.50;;;;;;;-145.18;100.00;46660.41;5090646;28;20299;-72
2022/11/02 02:11:34;;;;;;;11.30;2.33;;;;;;;-145.18;100.00;46662.34;5090702;28;20554;-72
2022/11/02 02:14:23;;;;;;;9.90;1.53;;;;;;;-145.18;100.00;46662.34;5090598;28;20751;-73
2022/11/02 02:17:13;;;;;;;10.23;1.80;;;;;;;-145.18;100.00;46664.31;5090593;28;20745;-73
2022/11/02 02:20:06;;;;;;;10.37;1.60;;;;;;;-145.18;100.00;46664.31;5090786;28;20103;-73
2022/11/02 02:23:02;;;;;;;11.93;1.83;;;;;;;-145.18;100.00;46666.25;5090544;28;20066;-74
2022/11/02 02:26:12;;;;;;;13.73;1.67;;;;;;;-145.18;100.00;46666.25;5089967;28;20093;-74
2022/11/02 02:28:58;;;;;;;9.53;1.80;;;;;;;-145.18;100.00;46670.16;5079726;28;20097;-74
2022/11/02 02:31:43;;;;;;;8.63;1.73;;;;;;;-145.18;100.00;46660.41;5090390;28;20049;-71
2022/11/02 02:34:18;;;;;;;12.10;1.90;;;;;;;-145.18;100.00;46662.34;5090214;28;20508;-72
2022/11/02 02:37:12;;;;;;;8.85;1.20;;;;;;;-145.18;100.00;46668.22;5089844;28;20016;-72
2022/11/02 02:39:49;;;;;;;16.10;2.20;;;;;;;-145.18;100.00;46666.25;5089223;28;20039;-72
2022/11/02 02:42:14;;;;;;;7.67;1.70;;;;;;;-145.18;100.00;46668.22;5090087;28;20384;-70
2022/11/02 02:44:45;;;;;;;14.50;1.97;;;;;;;-145.18;100.00;46664.31;5090180;28;20032;-71
2022/11/02 02:47:20;;;;;;;21.60;2.57;;;;;;;-145.18;100.00;46666.25;5089955;28;20031;-72
2022/11/02 02:50:01;;;;;;;9.73;2.10;;;;;;;-145.18;100.00;46666.25;5089925;28;20032;-72
2022/11/02 02:52:29;;;;;;;6.80;1.23;;;;;;;-145.18;100.00;46672.13;5089893;28;20085;-73
2022/11/02 02:54:58;;;;;;;14.30;1.43;;;;;;;-145.18;100.00;46674.06;5069872;28;20029;-74
2022/11/02 02:57:26;;;;;;;13.83;1.80;;;;;;;-145.18;100.00;46677.97;5069735;28;20036;-74
2022/11/02 02:59:53;;;;;;;7.57;1.30;;;;;;;-145.18;100.00;46676.03;5069525;28;20029;-73
2022/11/02 03:02:26;;;;;;;12.30;1.50;;;;;;;-145.18;100.00;46674.06;5295025;22;20453;-73
2022/11/02 03:04:51;;;;;;;17.27;2.27;;;;;;;-145.18;100.00;46676.03;5083493;28;20036;-73
2022/11/02 03:07:22;;;;;;;20.10;2.53;;;;;;;-145.18;100.00;46683.84;5110423;28;20528;-73
2022/11/02 03:09:58;;;;;;;13.00;2.10;;;;;;;-145.18;100.00;46683.84;5110189;28;20447;-73
2022/11/02 03:12:45;;;;;;;7.87;1.50;;;;;;;-145.18;100.00;46679.94;5110448;28;20062;-73
2022/11/02 03:15:23;;;;;;;14.77;2.30;;;;;;;-145.18;100.00;46681.88;5110518;28;20092;-72
2022/11/02 03:17:51;;;;;;;18.00;2.57;;;;;;;-145.18;100.00;46685.78;5110147;28;20042;-72
2022/11/02 03:20:29;;;;;;;13.23;2.30;;;;;;;-145.18;100.00;46685.78;5110740;28;20035;-72
2022/11/02 03:23:24;;;;;;;18.83;2.87;;;;;;;-145.18;100.00;46687.75;5109939;28;20571;-72
2022/11/02 03:26:06;;;;;;;12.75;1.95;;;;;;;-145.18;100.00;46689.69;5110484;28;20103;-72
2022/11/02 03:29:07;;;;;;;20.87;2.80;;;;;;;-145.18;100.00;46697.50;5110525;28;20123;-73
2022/11/02 03:31:41;;;;;;;17.83;2.83;;;;;;;-145.18;100.00;46701.41;5110654;28;20027;-73
2022/11/02 03:34:12;;;;;;;15.27;2.10;;;;;;;-145.18;100.00;46699.47;5110619;28;20036;-73
2022/11/02 03:36:53;;;;;;;10.30;1.70;;;;;;;-145.18;100.00;46703.38;5109984;28;20059;-73
2022/11/02 03:39:23;;;;;;;13.77;1.70;;;;;;;-145.18;100.00;46709.22;5110493;28;20035;-73
2022/11/02 03:41:51;;;;;;;15.80;2.67;;;;;;;-145.18;100.00;46703.38;5110100;28;20027;-73
2022/11/02 03:44:22;;;;;;;14.33;2.30;;;;;;;-145.18;100.00;46711.19;5110692;28;20372;-73
2022/11/02 03:46:51;;;;;;;15.33;2.77;;;;;;;-145.18;100.00;46709.22;5109782;28;20027;-73
2022/11/02 03:49:19;;;;;;;10.50;1.67;;;;;;;-145.18;100.00;46701.41;5110274;28;20028;-73
2022/11/02 03:51:45;;;;;;;18.13;1.80;;;;;;;-145.18;100.00;46703.38;5111709;28;20031;-72
2022/11/02 03:54:30;;;;;;;23.33;3.77;;;;;;;-145.18;100.00;46705.31;5113838;28;20451;-73
2022/11/02 03:56:59;;;;;;;23.10;4.00;;;;;;;-145.18;100.00;46705.31;5112884;28;20028;-73
2022/11/02 03:59:29;;;;;;;21.63;2.00;;;;;;;-145.18;100.00;46705.31;5113675;28;20088;-73
2022/11/02 04:01:55;;;;;;;16.47;2.37;;;;;;;-145.18;100.00;46703.38;5113351;28;20020;-73
2022/11/02 04:09:06;;;;;;;15.10;2.30;;;;;;;-145.18;100.00;46709.22;5113135;28;20031;-73
2022/11/02 04:16:44;;;;;;;19.80;2.37;;;;;;;-145.18;100.00;46705.31;5113636;28;20035;-73
2022/11/02 04:20:36;;;;;;;12.60;2.30;;;;;;;-145.18;100.00;46709.22;5113738;28;20027;-72
2022/11/02 04:28:18;;;;;;;28.40;3.50;;;;;;;-145.18;100.00;46701.41;5113064;28;20104;-73
2022/11/02 04:32:10;;;;;;;19.27;2.67;;;;;;;-145.18;100.00;46705.31;5113185;28;20055;-73
2022/11/02 04:36:02;;;;;;;15.43;2.10;;;;;;;-145.18;100.00;46707.28;5089146;28;20392;-73
2022/11/02 04:39:53;;;;;;;21.63;2.70;;;;;;;-145.18;100.00;46707.28;5082829;28;20436;-73
2022/11/02 04:43:49;;;;;;;22.13;2.97;;;;;;;-145.18;100.00;46707.28;5081985;28;20099;-73
2022/11/02 04:47:41;;;;;;;13.27;2.30;;;;;;;-145.18;100.00;46703.38;5082924;28;20060;-73
2022/11/02 04:51:33;;;;;;;17.27;2.50;;;;;;;-145.18;100.00;46705.31;5082287;28;20060;-73
2022/11/02 04:55:24;;;;;;;17.00;2.40;;;;;;;-145.18;100.00;46707.28;5082826;28;20119;-73
2022/11/02 04:59:20;;;;;;;18.57;2.77;;;;;;;-145.18;100.00;46707.28;5090112;28;20032;-73
2022/11/02 11:40:21;;;;;;;18.93;2.77;;;;;;;-145.18;100.00;47344.13;5089242;28;20719;-73
2022/11/02 11:44:05;;;;;;;11.67;2.30;;;;;;;-145.18;100.00;47342.16;5072615;28;20047;-73
2022/11/02 11:47:50;;;;;;;17.30;2.17;;;;;;;-145.18;100.00;47410.56;5069741;28;20504;-73
2022/11/02 11:55:14;;;;;;;11.07;2.03;;;;;;;-145.18;100.00;47308.97;5071553;28;20047;-73
2022/11/02 12:09:41;;;;;;;12.73;2.17;;;;;;;-145.18;100.00;47248.41;5062849;28;20112;-73
2022/11/02 12:13:26;;;;;;;13.80;2.53;;;;;;;-145.18;100.00;47240.56;5058587;28;20442;-73
2022/11/02 12:17:11;;;;;;;15.50;2.90;;;;;;;-145.18;100.00;47228.84;5075567;28;20032;-73
2022/11/02 12:20:56;;;;;;;10.17;1.60;;;;;;;-145.18;100.00;47152.66;5075826;28;20531;-73
2022/11/02 12:24:42;;;;;;;10.50;2.10;;;;;;;-145.18;100.00;47137.03;5085936;28;20055;-73
2022/11/02 12:39:11;;;;;;;16.87;2.00;;;;;;;-145.18;100.00;47346.06;5074721;28;20079;-72
